createdAt,value
2022-11-17T00:02:09.955Z,68.65
2022-11-17T00:04:37.628Z,68.49
2022-11-17T00:07:05.331Z,68.48
2022-11-17T00:09:33.011Z,68.49
2022-11-17T00:12:22.322Z,68.54
2022-11-17T00:14:51.808Z,68.77
2022-11-17T00:17:19.525Z,69.04
2022-11-17T00:20:04.680Z,68.85
2022-11-17T00:22:33.005Z,68.70
2022-11-17T00:25:00.796Z,69.09
2022-11-17T00:27:28.594Z,68.83
2022-11-17T00:29:58.004Z,68.73
2022-11-17T00:32:43.516Z,68.63
2022-11-17T00:35:11.353Z,69.12
2022-11-17T00:38:00.720Z,69.03
2022-11-17T00:40:28.395Z,68.79
2022-11-17T00:42:56.093Z,69.13
2022-11-17T00:45:25.139Z,68.70
2022-11-17T00:47:52.781Z,69.26
2022-11-17T00:50:20.476Z,69.02
2022-11-17T00:52:48.172Z,69.28
2022-11-17T00:55:15.998Z,69.07
2022-11-17T00:57:43.706Z,69.39
2022-11-17T01:00:12.296Z,69.59
2022-11-17T01:02:41.353Z,69.39
2022-11-17T01:05:09.406Z,69.35
2022-11-17T01:07:37.128Z,69.65
2022-11-17T01:10:05.249Z,69.76
2022-11-17T01:12:32.958Z,69.60
2022-11-17T01:15:00.931Z,69.59
2022-11-17T01:17:28.620Z,69.45
2022-11-17T01:19:57.590Z,69.60
2022-11-17T01:22:25.306Z,69.62
2022-11-17T01:24:52.937Z,69.80
2022-11-17T01:27:20.576Z,69.38
2022-11-17T01:29:48.798Z,69.39
2022-11-17T01:32:16.458Z,69.58
2022-11-17T01:34:44.140Z,69.30
2022-11-17T01:37:22.313Z,69.99
2022-11-17T01:39:50.662Z,69.68
2022-11-17T01:42:21.150Z,69.99
2022-11-17T01:44:58.109Z,69.47
2022-11-17T01:47:32.381Z,69.95
2022-11-17T01:50:04.936Z,69.76
2022-11-17T01:52:38.508Z,69.67
2022-11-17T01:55:09.395Z,69.50
2022-11-17T01:57:40.168Z,69.80
2022-11-17T02:00:10.717Z,70.00
2022-11-17T02:02:40.379Z,69.93
2022-11-17T02:05:17.583Z,69.91
2022-11-17T02:07:48.282Z,69.81
2022-11-17T02:10:16.461Z,70.12
2022-11-17T02:12:46.248Z,69.81
2022-11-17T02:15:14.119Z,70.09
2022-11-17T02:17:43.759Z,69.65
2022-11-17T02:20:14.309Z,69.87
2022-11-17T02:23:24.939Z,70.09
2022-11-17T02:26:17.330Z,69.81
2022-11-17T02:28:54.181Z,69.81
2022-11-17T02:31:27.712Z,69.70
2022-11-17T02:34:06.852Z,69.91
2022-11-17T02:36:43.296Z,69.75
2022-11-17T02:39:20.142Z,69.90
2022-11-17T02:41:53.316Z,69.91
2022-11-17T02:44:25.895Z,69.88
2022-11-17T02:46:57.061Z,69.80
2022-11-17T02:49:28.600Z,69.77
2022-11-17T02:51:58.490Z,70.04
2022-11-17T02:54:29.191Z,69.80
2022-11-17T02:56:56.963Z,69.84
2022-11-17T02:59:30.760Z,69.84
2022-11-17T03:02:33.508Z,69.79
2022-11-17T03:05:13.236Z,69.65
2022-11-17T03:07:52.618Z,69.84
2022-11-17T03:10:26.609Z,69.67
2022-11-17T03:13:01.535Z,69.78
2022-11-17T03:15:44.778Z,69.87
2022-11-17T03:18:30.205Z,69.84
2022-11-17T03:21:07.338Z,69.99
2022-11-17T03:23:43.070Z,70.13
2022-11-17T03:26:14.133Z,70.08
2022-11-17T03:28:43.828Z,69.79
2022-11-17T03:31:16.117Z,69.81
2022-11-17T03:33:49.132Z,69.92
2022-11-17T03:36:19.676Z,70.21
2022-11-17T03:38:52.936Z,70.09
2022-11-17T03:41:23.040Z,69.80
2022-11-17T03:43:52.486Z,69.98
2022-11-17T03:46:23.277Z,70.00
2022-11-17T03:48:54.881Z,69.93
2022-11-17T03:51:25.881Z,69.94
2022-11-17T03:53:54.650Z,69.90
2022-11-17T03:56:32.076Z,70.11
2022-11-17T03:59:03.685Z,70.05
2022-11-17T04:01:34.581Z,69.93
2022-11-17T04:04:02.248Z,69.86
2022-11-17T04:06:29.959Z,70.04
2022-11-17T04:08:57.631Z,69.82
2022-11-17T04:11:43.115Z,69.97
2022-11-17T04:14:28.481Z,69.85
2022-11-17T04:16:57.471Z,70.14
2022-11-17T04:19:25.123Z,70.24
2022-11-17T04:21:52.835Z,70.20
2022-11-17T04:24:20.482Z,70.24
2022-11-17T04:27:05.913Z,70.13
2022-11-17T04:29:34.126Z,70.02
2022-11-17T04:32:03.172Z,70.38
2022-11-17T04:34:30.876Z,70.04
2022-11-17T04:36:59.403Z,70.41
2022-11-17T04:39:29.290Z,70.66
2022-11-17T04:41:57.548Z,70.33
2022-11-17T04:44:27.134Z,70.41
2022-11-17T04:46:55.692Z,70.18
2022-11-17T04:49:26.427Z,70.23
2022-11-17T04:51:54.993Z,70.57
2022-11-17T04:54:25.132Z,70.17
2022-11-17T04:56:53.983Z,70.38
2022-11-17T04:59:22.117Z,70.43
2022-11-17T05:01:50.033Z,70.48
2022-11-17T05:04:40.266Z,70.54
2022-11-17T05:07:09.724Z,70.82
2022-11-17T05:09:37.679Z,70.59
2022-11-17T05:12:23.129Z,70.76
2022-11-17T05:14:50.784Z,70.45
2022-11-17T05:17:17.677Z,71.04
2022-11-17T05:19:47.098Z,70.48
2022-11-17T05:22:35.588Z,70.74
2022-11-17T05:25:03.857Z,70.63
2022-11-17T05:27:31.774Z,70.62
2022-11-17T05:29:59.516Z,70.83
2022-11-17T05:32:27.261Z,70.84
2022-11-17T05:34:54.968Z,70.64
2022-11-17T05:37:24.025Z,70.56
2022-11-17T05:39:51.705Z,70.58
2022-11-17T05:42:19.573Z,70.84
2022-11-17T05:44:48.500Z,70.82
2022-11-17T05:47:16.520Z,70.79
2022-11-17T05:49:44.390Z,70.92
2022-11-17T05:52:12.065Z,70.91
2022-11-17T05:54:41.022Z,70.57
2022-11-17T05:57:14.216Z,70.84
2022-11-17T05:59:46.734Z,70.80
2022-11-17T06:02:18.586Z,70.83
2022-11-17T06:04:47.285Z,70.54
2022-11-17T06:07:15.147Z,70.75
2022-11-17T06:09:44.172Z,70.73
2022-11-17T06:12:12.801Z,70.46
2022-11-17T06:14:40.460Z,70.32
2022-11-17T06:17:13.434Z,70.58
2022-11-17T06:19:46.316Z,69.89
2022-11-17T06:22:14.147Z,70.40
2022-11-17T06:24:45.989Z,70.08
2022-11-17T06:27:16.018Z,70.39
2022-11-17T06:29:45.270Z,70.29
2022-11-17T06:32:14.853Z,70.34
2022-11-17T06:34:43.213Z,70.50
2022-11-17T06:37:11.422Z,70.51
2022-11-17T06:39:39.081Z,70.23
2022-11-17T06:42:08.105Z,69.94
2022-11-17T06:44:35.762Z,70.27
2022-11-17T06:47:03.457Z,70.31
2022-11-17T06:49:31.082Z,69.95
2022-11-17T06:51:58.722Z,70.05
2022-11-17T06:54:26.444Z,70.50
2022-11-17T06:56:55.418Z,69.29
2022-11-17T06:59:24.479Z,69.27
2022-11-17T07:01:52.183Z,69.81
2022-11-17T07:04:19.965Z,69.99
2022-11-17T07:06:47.681Z,70.42
2022-11-17T07:09:15.419Z,69.94
2022-11-17T07:11:43.098Z,70.09
2022-11-17T07:14:11.063Z,70.48
2022-11-17T07:16:42.677Z,69.90
2022-11-17T07:19:10.920Z,69.43
2022-11-17T07:21:38.781Z,70.01
2022-11-17T07:24:06.955Z,70.16
2022-11-17T07:26:34.700Z,70.37
2022-11-17T07:29:02.440Z,70.27
2022-11-17T07:31:31.293Z,69.56
2022-11-17T07:34:00.393Z,69.77
2022-11-17T07:36:28.194Z,70.54
2022-11-17T07:38:55.904Z,70.40
2022-11-17T07:41:23.639Z,70.97
2022-11-17T07:43:51.408Z,70.53
2022-11-17T07:46:19.120Z,71.06
2022-11-17T07:48:46.830Z,70.62
2022-11-17T07:51:17.201Z,70.64
2022-11-17T07:53:44.954Z,70.78
2022-11-17T07:56:13.499Z,70.50
2022-11-17T07:58:41.572Z,70.64
2022-11-17T08:01:10.893Z,71.02
2022-11-17T08:03:38.700Z,70.61
2022-11-17T08:06:07.936Z,69.57
2022-11-17T08:08:38.100Z,69.77
2022-11-17T08:11:07.202Z,70.29
2022-11-17T08:13:35.699Z,70.46
2022-11-17T08:16:03.660Z,69.71
2022-11-17T08:18:32.282Z,68.91
2022-11-17T08:21:04.450Z,69.59
2022-11-17T08:23:32.158Z,69.98
2022-11-17T08:26:02.332Z,69.65
2022-11-17T08:28:30.591Z,70.02
2022-11-17T08:30:58.437Z,70.29
2022-11-17T08:33:26.185Z,70.12
2022-11-17T08:35:53.930Z,70.52
2022-11-17T08:38:21.610Z,70.38
2022-11-17T08:40:49.340Z,70.38
2022-11-17T08:43:18.395Z,70.17
2022-11-17T08:45:46.123Z,70.09
2022-11-17T08:48:13.828Z,70.60
2022-11-17T08:50:41.588Z,69.75
2022-11-17T08:53:14.756Z,70.44
2022-11-17T08:55:42.551Z,69.15
2022-11-17T08:58:10.424Z,69.45
2022-11-17T09:00:39.967Z,69.48
2022-11-17T09:03:08.772Z,69.44
2022-11-17T09:05:39.867Z,69.73
2022-11-17T09:08:30.250Z,69.53
2022-11-17T09:10:55.791Z,70.19
2022-11-17T09:13:23.556Z,70.07
2022-11-17T09:15:52.607Z,70.50
2022-11-17T09:18:20.312Z,69.91
2022-11-17T09:20:48.002Z,70.39
2022-11-17T09:23:15.704Z,70.22
2022-11-17T09:25:43.429Z,70.02
2022-11-17T09:28:11.072Z,69.82
2022-11-17T09:30:38.810Z,70.25
2022-11-17T09:33:07.890Z,69.68
2022-11-17T09:35:35.600Z,69.91
2022-11-17T09:38:03.302Z,70.08
2022-11-17T09:40:37.444Z,69.53
2022-11-17T09:43:09.726Z,70.16
2022-11-17T09:45:40.879Z,70.14
2022-11-17T09:51:05.197Z,70.25
2022-11-17T09:53:44.345Z,69.80
2022-11-17T09:56:14.544Z,69.74
2022-11-17T09:58:46.836Z,69.82
2022-11-17T10:01:17.098Z,69.63
2022-11-17T10:03:48.498Z,70.00
2022-11-17T10:06:20.376Z,70.14
2022-11-17T10:08:58.189Z,69.80
2022-11-17T10:11:33.058Z,69.94
2022-11-17T10:14:05.000Z,70.08
2022-11-17T10:16:32.748Z,70.03
2022-11-17T10:19:03.400Z,70.04
2022-11-17T10:21:31.507Z,68.89
2022-11-17T10:24:00.443Z,69.12
2022-11-17T10:26:28.178Z,69.37
2022-11-17T10:29:22.987Z,69.24
2022-11-17T10:31:51.088Z,69.23
2022-11-17T10:34:40.306Z,69.47
2022-11-17T10:37:26.481Z,69.33
2022-11-17T10:40:10.774Z,69.20
2022-11-17T10:42:38.553Z,69.56
2022-11-17T10:45:07.510Z,68.28
2022-11-17T10:47:39.367Z,68.51
2022-11-17T10:50:18.638Z,68.79
2022-11-17T10:52:47.110Z,68.60
2022-11-17T10:55:25.419Z,68.93
2022-11-17T10:57:57.543Z,69.53
2022-11-17T11:00:29.542Z,69.61
2022-11-17T11:03:18.651Z,69.49
2022-11-17T11:06:22.644Z,69.58
2022-11-17T11:08:56.022Z,68.84
2022-11-17T11:11:36.767Z,69.26
2022-11-17T11:14:13.166Z,69.04
2022-11-17T11:16:47.625Z,68.89
2022-11-17T11:19:17.687Z,69.45
2022-11-17T11:22:13.019Z,69.49
2022-11-17T11:24:52.111Z,68.96
2022-11-17T11:27:36.151Z,69.03
2022-11-17T11:30:06.852Z,68.99
2022-11-17T11:32:46.314Z,68.83
2022-11-17T11:35:35.784Z,69.04
2022-11-17T11:38:15.941Z,68.93
2022-11-17T11:40:48.949Z,69.01
2022-11-17T11:43:32.107Z,68.92
2022-11-17T11:46:09.295Z,68.66
2022-11-17T11:48:41.304Z,68.26
2022-11-17T11:51:15.643Z,68.86
2022-11-17T11:53:52.836Z,68.79
2022-11-17T11:56:25.642Z,68.96
2022-11-17T11:58:59.777Z,69.04
2022-11-17T12:01:29.940Z,68.94
2022-11-17T12:04:14.998Z,68.70
2022-11-17T12:06:49.989Z,68.56
2022-11-17T12:09:51.920Z,68.64
2022-11-17T12:12:26.810Z,68.80
2022-11-17T12:15:37.034Z,68.57
2022-11-17T12:18:14.268Z,68.95
2022-11-17T12:20:53.797Z,68.80
2022-11-17T12:23:35.651Z,68.81
2022-11-17T12:26:05.027Z,68.81
2022-11-17T12:28:35.742Z,69.02
2022-11-17T12:31:09.748Z,68.73
2022-11-17T12:34:12.016Z,69.06
2022-11-17T12:36:39.904Z,68.83
2022-11-17T12:39:27.620Z,68.91
2022-11-17T12:42:09.163Z,68.88
2022-11-17T12:44:58.331Z,68.55
2022-11-17T12:47:28.226Z,68.85
2022-11-17T12:50:27.227Z,68.67
2022-11-17T12:53:20.622Z,68.98
2022-11-17T12:56:29.953Z,68.79
2022-11-17T12:59:17.008Z,68.90
2022-11-17T13:01:53.624Z,69.04
2022-11-17T13:04:26.367Z,68.91
2022-11-17T13:07:02.101Z,69.12
2022-11-17T13:09:31.274Z,68.81
2022-11-17T13:12:04.275Z,68.81
2022-11-17T13:14:33.871Z,68.29
2022-11-17T13:17:02.771Z,68.58
2022-11-17T13:19:33.786Z,67.84
2022-11-17T13:22:03.706Z,68.48
2022-11-17T13:24:33.735Z,68.30
2022-11-17T13:27:02.496Z,67.65
2022-11-17T13:29:30.353Z,67.90
2022-11-17T13:32:16.208Z,68.06
2022-11-17T13:34:53.161Z,67.95
2022-11-17T13:37:24.305Z,67.96
2022-11-17T13:39:57.116Z,68.00
2022-11-17T13:42:27.416Z,67.29
2022-11-17T13:44:57.204Z,67.94
2022-11-17T13:47:42.467Z,67.34
2022-11-17T13:50:37.229Z,67.51
2022-11-17T13:53:24.111Z,67.81
2022-11-17T13:55:52.628Z,67.90
2022-11-17T13:58:41.714Z,67.70
2022-11-17T14:01:13.103Z,67.79
2022-11-17T14:03:43.444Z,67.55
2022-11-17T14:06:13.158Z,67.30
2022-11-17T14:08:44.209Z,67.82
2022-11-17T14:11:21.140Z,68.02
2022-11-17T14:13:51.412Z,67.86
2022-11-17T14:16:26.538Z,66.59
2022-11-17T14:19:01.728Z,66.51
2022-11-17T14:21:30.279Z,66.92
2022-11-17T14:24:12.916Z,67.25
2022-11-17T14:26:45.342Z,67.35
2022-11-17T14:29:14.227Z,67.53
2022-11-17T14:31:42.165Z,67.32
2022-11-17T14:34:11.261Z,67.34
2022-11-17T14:36:40.369Z,66.93
2022-11-17T14:39:15.332Z,67.33
2022-11-17T14:41:43.258Z,67.04
2022-11-17T14:44:11.232Z,67.66
2022-11-17T14:46:39.028Z,67.38
2022-11-17T14:49:07.150Z,67.81
2022-11-17T14:51:36.284Z,67.27
2022-11-17T14:54:04.127Z,67.49
2022-11-17T14:56:31.828Z,67.24
2022-11-17T14:59:01.122Z,67.59
2022-11-17T15:01:31.085Z,67.59
2022-11-17T15:04:10.992Z,67.41
2022-11-17T15:06:50.598Z,66.94
2022-11-17T15:09:20.438Z,67.61
2022-11-17T15:11:48.258Z,67.12
2022-11-17T15:14:16.365Z,67.39
2022-11-17T15:16:44.735Z,67.37
2022-11-17T15:19:13.183Z,67.54
2022-11-17T15:21:40.972Z,67.45
2022-11-17T15:24:10.275Z,67.62
2022-11-17T15:26:38.018Z,67.63
2022-11-17T15:29:05.749Z,67.38
2022-11-17T15:31:33.508Z,67.72
2022-11-17T15:34:02.334Z,67.36
2022-11-17T15:36:30.042Z,67.74
2022-11-17T15:38:57.743Z,67.59
2022-11-17T15:41:31.444Z,67.62
2022-11-17T15:44:00.694Z,67.69
2022-11-17T15:46:28.524Z,67.51
2022-11-17T15:48:56.737Z,67.48
2022-11-17T15:51:26.399Z,67.45
2022-11-17T15:53:57.374Z,67.54
2022-11-17T15:56:27.655Z,67.40
2022-11-17T15:58:57.362Z,67.48
2022-11-17T16:01:29.803Z,67.53
2022-11-17T16:04:02.103Z,67.00
2022-11-17T16:06:30.283Z,66.50
2022-11-17T16:08:58.316Z,66.11
2022-11-17T16:11:27.691Z,65.41
2022-11-17T16:13:56.234Z,64.60
2022-11-17T16:16:25.041Z,64.53
2022-11-17T16:18:52.736Z,64.05
2022-11-17T16:21:20.718Z,63.83
2022-11-17T16:23:50.154Z,63.13
2022-11-17T16:26:19.641Z,63.07
2022-11-17T16:28:48.851Z,62.41
2022-11-17T16:31:18.893Z,62.40
2022-11-17T16:33:50.754Z,61.99
2022-11-17T16:36:19.252Z,61.65
2022-11-17T16:39:00.275Z,61.52
2022-11-17T16:41:30.228Z,61.75
2022-11-17T16:43:59.393Z,62.06
2022-11-17T16:46:29.727Z,62.63
2022-11-17T16:48:58.349Z,63.57
2022-11-17T16:51:26.059Z,63.70
2022-11-17T16:53:57.550Z,63.89
2022-11-17T16:56:25.292Z,64.02
2022-11-17T16:58:53.277Z,64.46
2022-11-17T17:01:24.058Z,64.54
2022-11-17T17:03:56.871Z,64.96
2022-11-17T17:06:25.266Z,65.43
2022-11-17T17:08:56.688Z,65.15
2022-11-17T17:11:24.650Z,65.83
2022-11-17T17:13:52.488Z,65.12
2022-11-17T17:16:22.271Z,65.64
2022-11-17T17:18:54.587Z,66.02
2022-11-17T17:21:22.302Z,65.57
2022-11-17T17:23:49.974Z,65.31
2022-11-17T17:26:20.203Z,65.39
2022-11-17T17:28:49.659Z,65.81
2022-11-17T17:31:21.595Z,65.92
2022-11-17T17:33:51.977Z,66.10
2022-11-17T17:36:21.478Z,65.75
2022-11-17T17:38:55.127Z,66.08
2022-11-17T17:41:24.595Z,66.16
2022-11-17T17:43:56.977Z,65.85
2022-11-17T17:46:25.384Z,66.09
2022-11-17T17:48:54.472Z,65.84
2022-11-17T17:51:24.976Z,65.90
2022-11-17T17:53:53.288Z,66.02
2022-11-17T17:56:22.656Z,65.86
2022-11-17T17:58:51.719Z,65.98
2022-11-17T18:01:21.583Z,66.12
2022-11-17T18:03:51.523Z,66.58
2022-11-17T18:06:22.468Z,65.96
2022-11-17T18:08:50.550Z,66.42
2022-11-17T18:11:19.825Z,66.24
2022-11-17T18:13:49.674Z,65.65
2022-11-17T18:16:21.349Z,65.94
2022-11-17T18:18:49.953Z,65.59
2022-11-17T18:21:20.428Z,64.49
2022-11-17T18:23:48.390Z,65.31
2022-11-17T18:26:19.600Z,64.13
2022-11-17T18:28:52.528Z,64.17
2022-11-17T18:31:21.118Z,63.73
2022-11-17T18:33:51.953Z,63.98
2022-11-17T18:36:21.964Z,63.28
2022-11-17T18:38:51.018Z,63.86
2022-11-17T18:41:18.898Z,64.14
2022-11-17T18:43:46.845Z,64.21
2022-11-17T18:46:16.227Z,64.28
2022-11-17T18:48:46.074Z,64.49
2022-11-17T18:51:19.833Z,64.44
2022-11-17T18:53:50.107Z,65.16
2022-11-17T18:56:20.144Z,64.97
2022-11-17T18:58:48.170Z,64.89
2022-11-17T19:01:18.355Z,64.98
2022-11-17T19:03:48.288Z,65.30
2022-11-17T19:06:17.037Z,65.41
2022-11-17T19:08:45.048Z,65.06
2022-11-17T19:11:14.555Z,65.20
2022-11-17T19:13:44.212Z,65.27
2022-11-17T19:16:14.816Z,65.28
2022-11-17T19:18:43.475Z,65.09
2022-11-17T19:21:13.283Z,65.11
2022-11-17T19:23:46.572Z,65.37
2022-11-17T19:26:20.552Z,65.39
2022-11-17T19:28:48.936Z,65.17
2022-11-17T19:31:18.848Z,65.18
2022-11-17T19:33:47.911Z,65.37
2022-11-17T19:36:17.679Z,65.20
2022-11-17T19:38:48.067Z,65.31
2022-11-17T19:41:19.391Z,65.25
2022-11-17T19:43:47.649Z,65.47
2022-11-17T19:46:17.293Z,65.49
2022-11-17T19:48:45.471Z,65.32
2022-11-17T19:51:16.393Z,65.56
2022-11-17T19:53:44.456Z,65.91
2022-11-17T19:56:12.494Z,65.81
2022-11-17T19:58:42.168Z,65.63
2022-11-17T20:01:12.249Z,65.66
2022-11-17T20:03:40.853Z,65.99
2022-11-17T20:06:09.346Z,65.81
2022-11-17T20:08:37.249Z,66.07
2022-11-17T20:11:06.971Z,66.31
2022-11-17T20:13:35.291Z,65.81
2022-11-17T20:16:11.710Z,66.08
2022-11-17T20:18:39.599Z,65.91
2022-11-17T20:21:08.533Z,66.00
2022-11-17T20:23:37.319Z,66.22
2022-11-17T20:26:06.469Z,66.25
2022-11-17T20:28:34.848Z,65.88
2022-11-17T20:31:09.911Z,65.87
2022-11-17T20:33:38.156Z,65.78
2022-11-17T20:36:06.867Z,66.19
2022-11-17T20:38:35.950Z,65.99
2022-11-17T20:41:04.538Z,65.90
2022-11-17T20:43:32.492Z,66.36
2022-11-17T20:46:00.468Z,66.17
2022-11-17T20:48:30.284Z,66.33
2022-11-17T20:50:58.748Z,66.20
2022-11-17T20:53:26.862Z,65.95
2022-11-17T20:55:57.033Z,66.24
2022-11-17T20:58:24.850Z,66.16
2022-11-17T21:00:52.769Z,65.94
2022-11-17T21:03:21.032Z,65.98
2022-11-17T21:05:58.940Z,65.98
2022-11-17T21:08:28.850Z,65.81
2022-11-17T21:10:57.031Z,66.14
2022-11-17T21:13:24.802Z,65.75
2022-11-17T21:16:03.994Z,65.99
2022-11-17T21:18:32.187Z,65.75
2022-11-17T21:21:02.852Z,65.86
2022-11-17T21:23:30.532Z,65.59
2022-11-17T21:25:58.259Z,65.93
2022-11-17T21:28:26.014Z,65.73
2022-11-17T21:30:53.746Z,65.72
2022-11-17T21:33:21.414Z,65.88
2022-11-17T21:35:49.125Z,65.59
2022-11-17T21:38:18.147Z,65.63
2022-11-17T21:40:45.843Z,65.84
2022-11-17T21:43:13.499Z,65.80
2022-11-17T21:45:41.195Z,65.62
2022-11-17T21:48:08.921Z,65.70
2022-11-17T21:50:36.667Z,65.86
2022-11-17T21:53:04.364Z,65.81
2022-11-17T21:55:33.420Z,65.82
2022-11-17T21:58:01.092Z,65.82
2022-11-17T22:00:29.586Z,65.65
2022-11-17T22:02:57.279Z,65.53
2022-11-17T22:05:25.004Z,65.83
2022-11-17T22:07:52.678Z,65.83
2022-11-17T22:10:20.407Z,65.43
2022-11-17T22:12:49.436Z,65.81
2022-11-17T22:15:17.193Z,65.57
2022-11-17T22:17:44.952Z,65.69
2022-11-17T22:20:12.761Z,65.55
2022-11-17T22:22:40.545Z,65.46
2022-11-17T22:25:37.584Z,65.33
2022-11-17T22:27:57.772Z,65.38
2022-11-17T22:30:25.575Z,65.48
2022-11-17T22:32:53.232Z,65.66
2022-11-17T22:35:20.929Z,65.58
2022-11-17T22:37:49.473Z,65.33
2022-11-17T22:40:17.276Z,65.37
2022-11-17T22:42:45.015Z,65.66
2022-11-17T22:45:14.148Z,65.63
2022-11-17T22:47:42.302Z,65.79
2022-11-17T22:50:10.914Z,65.57
2022-11-17T22:52:38.592Z,65.72
2022-11-17T22:55:06.823Z,65.59
2022-11-17T22:57:34.556Z,65.75
2022-11-17T23:00:02.220Z,65.80
2022-11-17T23:02:31.248Z,65.71
2022-11-17T23:04:58.958Z,65.75
2022-11-17T23:07:26.715Z,65.67
2022-11-17T23:09:54.443Z,65.47
2022-11-17T23:12:22.101Z,65.64
2022-11-17T23:14:49.782Z,65.66
2022-11-17T23:17:17.478Z,65.64
2022-11-17T23:19:46.564Z,65.55
2022-11-17T23:22:14.218Z,65.49
2022-11-17T23:24:41.964Z,65.72
2022-11-17T23:27:09.677Z,65.49
2022-11-17T23:29:37.371Z,65.52
2022-11-17T23:32:05.459Z,65.64
2022-11-17T23:34:33.195Z,65.54
2022-11-17T23:37:03.947Z,65.53
2022-11-17T23:39:32.369Z,65.59
2022-11-17T23:42:00.086Z,65.63
2022-11-17T23:44:28.195Z,65.61
2022-11-17T23:46:55.927Z,65.46
2022-11-17T23:49:23.652Z,65.35
2022-11-17T23:51:51.336Z,65.34
2022-11-17T23:54:20.339Z,65.56
2022-11-17T23:56:50.496Z,65.58
2022-11-17T23:59:18.671Z,65.63
